sensor_id;sensor_type;location;lat;lon;timestamp;temperature;humidity
43997;DHT22;34318;45.818;15.964;2022-07-11T00:02:25;22.80;67.90
43997;DHT22;34318;45.818;15.964;2022-07-11T00:04:52;22.80;67.50
43997;DHT22;34318;45.818;15.964;2022-07-11T00:07:19;22.90;66.50
43997;DHT22;34318;45.818;15.964;2022-07-11T00:09:47;22.90;66.10
43997;DHT22;34318;45.818;15.964;2022-07-11T00:12:14;22.90;66.00
43997;DHT22;34318;45.818;15.964;2022-07-11T00:14:41;22.80;66.00
43997;DHT22;34318;45.818;15.964;2022-07-11T00:17:09;22.90;65.90
43997;DHT22;34318;45.818;15.964;2022-07-11T00:19:39;22.90;65.40
43997;DHT22;34318;45.818;15.964;2022-07-11T00:22:06;22.90;65.20
43997;DHT22;34318;45.818;15.964;2022-07-11T00:24:33;22.80;64.90
43997;DHT22;34318;45.818;15.964;2022-07-11T00:27:00;22.90;64.70
43997;DHT22;34318;45.818;15.964;2022-07-11T00:29:27;22.90;64.30
43997;DHT22;34318;45.818;15.964;2022-07-11T00:31:56;22.90;63.90
43997;DHT22;34318;45.818;15.964;2022-07-11T00:34:24;22.80;63.80
43997;DHT22;34318;45.818;15.964;2022-07-11T00:36:51;22.80;64.00
43997;DHT22;34318;45.818;15.964;2022-07-11T00:39:18;22.90;63.40
43997;DHT22;34318;45.818;15.964;2022-07-11T00:41:45;22.90;62.80
43997;DHT22;34318;45.818;15.964;2022-07-11T00:44:12;22.80;62.80
43997;DHT22;34318;45.818;15.964;2022-07-11T00:46:40;22.90;62.40
43997;DHT22;34318;45.818;15.964;2022-07-11T00:49:07;22.80;62.70
43997;DHT22;34318;45.818;15.964;2022-07-11T00:51:34;22.80;63.00
43997;DHT22;34318;45.818;15.964;2022-07-11T00:54:02;22.80;62.90
43997;DHT22;34318;45.818;15.964;2022-07-11T00:56:29;22.80;63.00
43997;DHT22;34318;45.818;15.964;2022-07-11T00:58:58;22.80;62.70
43997;DHT22;34318;45.818;15.964;2022-07-11T01:01:26;22.70;62.90
43997;DHT22;34318;45.818;15.964;2022-07-11T01:03:53;22.70;62.60
43997;DHT22;34318;45.818;15.964;2022-07-11T01:06:20;22.70;62.60
43997;DHT22;34318;45.818;15.964;2022-07-11T01:08:47;22.80;62.00
43997;DHT22;34318;45.818;15.964;2022-07-11T01:11:14;22.80;62.10
43997;DHT22;34318;45.818;15.964;2022-07-11T01:13:46;22.70;62.10
43997;DHT22;34318;45.818;15.964;2022-07-11T01:18:46;22.80;61.80
43997;DHT22;34318;45.818;15.964;2022-07-11T01:23:47;22.70;61.80
43997;DHT22;34318;45.818;15.964;2022-07-11T01:26:19;22.70;61.60
43997;DHT22;34318;45.818;15.964;2022-07-11T01:28:47;22.70;61.30
43997;DHT22;34318;45.818;15.964;2022-07-11T01:31:15;22.70;61.10
43997;DHT22;34318;45.818;15.964;2022-07-11T01:33:42;22.70;60.90
43997;DHT22;34318;45.818;15.964;2022-07-11T01:36:10;22.70;60.60
43997;DHT22;34318;45.818;15.964;2022-07-11T01:38:37;22.70;60.80
43997;DHT22;34318;45.818;15.964;2022-07-11T01:41:04;22.70;60.70
43997;DHT22;34318;45.818;15.964;2022-07-11T01:43:33;22.70;60.40
43997;DHT22;34318;45.818;15.964;2022-07-11T01:46:00;22.70;60.20
43997;DHT22;34318;45.818;15.964;2022-07-11T01:48:27;22.70;60.40
43997;DHT22;34318;45.818;15.964;2022-07-11T01:50:55;22.60;60.40
43997;DHT22;34318;45.818;15.964;2022-07-11T01:53:22;22.70;60.30
43997;DHT22;34318;45.818;15.964;2022-07-11T01:55:50;22.60;60.40
43997;DHT22;34318;45.818;15.964;2022-07-11T01:58:37;22.60;60.50
43997;DHT22;34318;45.818;15.964;2022-07-11T02:01:04;22.60;60.70
43997;DHT22;34318;45.818;15.964;2022-07-11T02:03:32;22.60;60.60
43997;DHT22;34318;45.818;15.964;2022-07-11T02:05:59;22.60;60.50
43997;DHT22;34318;45.818;15.964;2022-07-11T02:08:27;22.60;60.70
43997;DHT22;34318;45.818;15.964;2022-07-11T02:10:53;22.60;60.70
43997;DHT22;34318;45.818;15.964;2022-07-11T02:13:22;22.50;60.80
43997;DHT22;34318;45.818;15.964;2022-07-11T02:15:50;22.60;60.50
43997;DHT22;34318;45.818;15.964;2022-07-11T02:18:19;22.50;60.60
43997;DHT22;34318;45.818;15.964;2022-07-11T02:20:46;22.60;60.60
43997;DHT22;34318;45.818;15.964;2022-07-11T02:23:16;22.60;60.60
43997;DHT22;34318;45.818;15.964;2022-07-11T02:25:44;22.60;60.40
43997;DHT22;34318;45.818;15.964;2022-07-11T02:28:11;22.50;60.70
43997;DHT22;34318;45.818;15.964;2022-07-11T02:30:40;22.50;61.00
43997;DHT22;34318;45.818;15.964;2022-07-11T02:33:07;22.50;61.00
43997;DHT22;34318;45.818;15.964;2022-07-11T02:35:34;22.50;61.00
43997;DHT22;34318;45.818;15.964;2022-07-11T02:38:04;22.60;60.90
43997;DHT22;34318;45.818;15.964;2022-07-11T02:40:31;22.50;61.40
43997;DHT22;34318;45.818;15.964;2022-07-11T02:42:58;22.40;61.40
43997;DHT22;34318;45.818;15.964;2022-07-11T02:45:25;22.50;61.40
43997;DHT22;34318;45.818;15.964;2022-07-11T02:47:52;22.40;61.80
43997;DHT22;34318;45.818;15.964;2022-07-11T02:50:19;22.40;61.70
43997;DHT22;34318;45.818;15.964;2022-07-11T02:52:46;22.50;61.30
43997;DHT22;34318;45.818;15.964;2022-07-11T02:55:16;22.50;61.60
43997;DHT22;34318;45.818;15.964;2022-07-11T02:57:42;22.50;61.60
43997;DHT22;34318;45.818;15.964;2022-07-11T03:00:15;22.50;61.70
43997;DHT22;34318;45.818;15.964;2022-07-11T03:02:42;22.40;61.80
43997;DHT22;34318;45.818;15.964;2022-07-11T03:05:09;22.50;61.70
43997;DHT22;34318;45.818;15.964;2022-07-11T03:07:36;22.50;61.60
43997;DHT22;34318;45.818;15.964;2022-07-11T03:10:03;22.50;61.70
43997;DHT22;34318;45.818;15.964;2022-07-11T03:12:30;22.50;61.70
43997;DHT22;34318;45.818;15.964;2022-07-11T03:14:57;22.50;61.90
43997;DHT22;34318;45.818;15.964;2022-07-11T03:17:24;22.40;62.20
43997;DHT22;34318;45.818;15.964;2022-07-11T03:19:51;22.40;62.30
43997;DHT22;34318;45.818;15.964;2022-07-11T03:22:18;22.40;62.70
43997;DHT22;34318;45.818;15.964;2022-07-11T03:24:45;22.40;62.60
43997;DHT22;34318;45.818;15.964;2022-07-11T03:27:12;22.40;62.40
43997;DHT22;34318;45.818;15.964;2022-07-11T03:29:40;22.40;62.30
43997;DHT22;34318;45.818;15.964;2022-07-11T03:32:08;22.50;62.10
43997;DHT22;34318;45.818;15.964;2022-07-11T03:34:36;22.50;62.10
43997;DHT22;34318;45.818;15.964;2022-07-11T03:37:04;22.40;62.20
43997;DHT22;34318;45.818;15.964;2022-07-11T03:39:31;22.40;62.10
43997;DHT22;34318;45.818;15.964;2022-07-11T03:41:58;22.40;62.40
43997;DHT22;34318;45.818;15.964;2022-07-11T03:44:25;22.40;62.10
43997;DHT22;34318;45.818;15.964;2022-07-11T03:46:52;22.40;62.10
43997;DHT22;34318;45.818;15.964;2022-07-11T03:49:19;22.50;61.70
43997;DHT22;34318;45.818;15.964;2022-07-11T03:51:45;22.40;61.90
43997;DHT22;34318;45.818;15.964;2022-07-11T03:54:12;22.40;62.10
43997;DHT22;34318;45.818;15.964;2022-07-11T03:56:39;22.40;62.20
43997;DHT22;34318;45.818;15.964;2022-07-11T03:59:06;22.30;62.40
43997;DHT22;34318;45.818;15.964;2022-07-11T04:01:33;22.30;62.30
43997;DHT22;34318;45.818;15.964;2022-07-11T04:03:59;22.40;62.30
43997;DHT22;34318;45.818;15.964;2022-07-11T04:06:26;22.30;62.40
43997;DHT22;34318;45.818;15.964;2022-07-11T04:08:54;22.30;62.50
43997;DHT22;34318;45.818;15.964;2022-07-11T04:11:20;22.40;62.20
43997;DHT22;34318;45.818;15.964;2022-07-11T04:13:47;22.40;62.30
43997;DHT22;34318;45.818;15.964;2022-07-11T04:16:14;22.40;62.60
43997;DHT22;34318;45.818;15.964;2022-07-11T04:18:41;22.40;62.30
43997;DHT22;34318;45.818;15.964;2022-07-11T04:21:08;22.40;61.90
43997;DHT22;34318;45.818;15.964;2022-07-11T04:23:36;22.40;62.10
43997;DHT22;34318;45.818;15.964;2022-07-11T04:26:03;22.30;62.00
43997;DHT22;34318;45.818;15.964;2022-07-11T04:28:32;22.40;61.90
43997;DHT22;34318;45.818;15.964;2022-07-11T04:30:59;22.30;61.90
43997;DHT22;34318;45.818;15.964;2022-07-11T04:33:26;22.30;61.80
43997;DHT22;34318;45.818;15.964;2022-07-11T04:35:54;22.30;61.90
43997;DHT22;34318;45.818;15.964;2022-07-11T04:38:21;22.40;61.30
43997;DHT22;34318;45.818;15.964;2022-07-11T04:40:48;22.40;61.50
43997;DHT22;34318;45.818;15.964;2022-07-11T04:43:16;22.40;61.50
43997;DHT22;34318;45.818;15.964;2022-07-11T04:45:43;22.40;61.30
43997;DHT22;34318;45.818;15.964;2022-07-11T04:48:10;22.40;61.30
43997;DHT22;34318;45.818;15.964;2022-07-11T04:50:37;22.40;61.60
43997;DHT22;34318;45.818;15.964;2022-07-11T04:53:04;22.40;61.70
43997;DHT22;34318;45.818;15.964;2022-07-11T04:55:31;22.40;62.30
43997;DHT22;34318;45.818;15.964;2022-07-11T04:57:58;22.40;61.60
43997;DHT22;34318;45.818;15.964;2022-07-11T05:00:25;22.50;61.40
43997;DHT22;34318;45.818;15.964;2022-07-11T05:02:52;22.40;61.70
43997;DHT22;34318;45.818;15.964;2022-07-11T05:05:19;22.40;62.10
43997;DHT22;34318;45.818;15.964;2022-07-11T05:07:46;22.30;62.20
43997;DHT22;34318;45.818;15.964;2022-07-11T05:10:14;22.40;62.10
43997;DHT22;34318;45.818;15.964;2022-07-11T05:12:40;22.40;62.50
43997;DHT22;34318;45.818;15.964;2022-07-11T05:15:08;22.40;62.50
43997;DHT22;34318;45.818;15.964;2022-07-11T05:17:35;22.40;62.50
43997;DHT22;34318;45.818;15.964;2022-07-11T05:20:03;22.40;62.80
43997;DHT22;34318;45.818;15.964;2022-07-11T05:22:30;22.40;63.00
43997;DHT22;34318;45.818;15.964;2022-07-11T05:24:57;22.40;63.30
43997;DHT22;34318;45.818;15.964;2022-07-11T05:27:24;22.40;63.10
43997;DHT22;34318;45.818;15.964;2022-07-11T05:29:50;22.40;63.30
43997;DHT22;34318;45.818;15.964;2022-07-11T05:32:17;22.50;63.30
43997;DHT22;34318;45.818;15.964;2022-07-11T05:34:45;22.50;63.40
43997;DHT22;34318;45.818;15.964;2022-07-11T05:37:12;22.50;63.40
43997;DHT22;34318;45.818;15.964;2022-07-11T05:39:39;22.50;63.60
43997;DHT22;34318;45.818;15.964;2022-07-11T05:42:06;22.50;63.70
43997;DHT22;34318;45.818;15.964;2022-07-11T05:44:34;22.50;63.80
43997;DHT22;34318;45.818;15.964;2022-07-11T05:47:02;22.50;64.20
43997;DHT22;34318;45.818;15.964;2022-07-11T05:49:31;22.50;64.20
43997;DHT22;34318;45.818;15.964;2022-07-11T05:51:58;22.50;64.20
43997;DHT22;34318;45.818;15.964;2022-07-11T05:54:25;22.50;64.40
43997;DHT22;34318;45.818;15.964;2022-07-11T05:56:52;22.50;64.30
43997;DHT22;34318;45.818;15.964;2022-07-11T05:59:19;22.50;64.40
43997;DHT22;34318;45.818;15.964;2022-07-11T06:01:46;22.60;64.20
43997;DHT22;34318;45.818;15.964;2022-07-11T06:04:14;22.50;64.60
43997;DHT22;34318;45.818;15.964;2022-07-11T06:06:40;22.50;65.00
43997;DHT22;34318;45.818;15.964;2022-07-11T06:09:07;22.50;65.60
43997;DHT22;34318;45.818;15.964;2022-07-11T06:11:34;22.50;65.40
43997;DHT22;34318;45.818;15.964;2022-07-11T06:14:01;22.50;64.90
43997;DHT22;34318;45.818;15.964;2022-07-11T06:16:29;22.50;64.90
43997;DHT22;34318;45.818;15.964;2022-07-11T06:18:56;22.50;64.90
43997;DHT22;34318;45.818;15.964;2022-07-11T06:21:27;22.50;65.50
43997;DHT22;34318;45.818;15.964;2022-07-11T06:23:54;22.50;65.10
43997;DHT22;34318;45.818;15.964;2022-07-11T06:26:22;22.60;64.20
43997;DHT22;34318;45.818;15.964;2022-07-11T06:28:48;22.50;64.30
43997;DHT22;34318;45.818;15.964;2022-07-11T06:31:15;22.50;65.30
43997;DHT22;34318;45.818;15.964;2022-07-11T06:33:43;22.50;64.70
43997;DHT22;34318;45.818;15.964;2022-07-11T06:36:11;22.50;63.80
43997;DHT22;34318;45.818;15.964;2022-07-11T06:38:38;22.60;62.40
43997;DHT22;34318;45.818;15.964;2022-07-11T06:41:06;22.60;61.80
43997;DHT22;34318;45.818;15.964;2022-07-11T06:43:33;22.50;60.40
43997;DHT22;34318;45.818;15.964;2022-07-11T06:46:00;22.50;59.10
43997;DHT22;34318;45.818;15.964;2022-07-11T06:48:28;22.50;59.00
43997;DHT22;34318;45.818;15.964;2022-07-11T06:50:55;22.50;56.70
43997;DHT22;34318;45.818;15.964;2022-07-11T06:53:25;22.60;56.80
43997;DHT22;34318;45.818;15.964;2022-07-11T06:55:52;22.60;57.20
43997;DHT22;34318;45.818;15.964;2022-07-11T06:58:19;22.60;58.40
43997;DHT22;34318;45.818;15.964;2022-07-11T07:01:00;22.60;58.40
43997;DHT22;34318;45.818;15.964;2022-07-11T07:03:28;22.70;57.50
43997;DHT22;34318;45.818;15.964;2022-07-11T07:05:56;22.60;57.20
43997;DHT22;34318;45.818;15.964;2022-07-11T07:08:28;22.60;58.20
43997;DHT22;34318;45.818;15.964;2022-07-11T07:10:57;22.60;57.50
43997;DHT22;34318;45.818;15.964;2022-07-11T07:13:31;22.60;57.60
43997;DHT22;34318;45.818;15.964;2022-07-11T07:15:59;22.60;57.60
43997;DHT22;34318;45.818;15.964;2022-07-11T07:18:26;22.70;56.90
43997;DHT22;34318;45.818;15.964;2022-07-11T07:20:54;22.70;56.50
43997;DHT22;34318;45.818;15.964;2022-07-11T07:23:20;22.70;56.40
43997;DHT22;34318;45.818;15.964;2022-07-11T07:25:48;22.60;55.60
43997;DHT22;34318;45.818;15.964;2022-07-11T07:28:14;22.60;56.10
43997;DHT22;34318;45.818;15.964;2022-07-11T07:30:42;22.70;55.30
43997;DHT22;34318;45.818;15.964;2022-07-11T07:33:12;22.70;56.10
43997;DHT22;34318;45.818;15.964;2022-07-11T07:35:39;22.70;55.60
43997;DHT22;34318;45.818;15.964;2022-07-11T07:38:06;22.70;55.30
43997;DHT22;34318;45.818;15.964;2022-07-11T07:40:33;22.80;54.70
43997;DHT22;34318;45.818;15.964;2022-07-11T07:43:00;22.80;54.30
43997;DHT22;34318;45.818;15.964;2022-07-11T07:45:28;22.80;53.80
43997;DHT22;34318;45.818;15.964;2022-07-11T07:47:55;22.80;54.00
43997;DHT22;34318;45.818;15.964;2022-07-11T07:50:22;22.80;54.60
43997;DHT22;34318;45.818;15.964;2022-07-11T07:52:52;22.90;54.00
43997;DHT22;34318;45.818;15.964;2022-07-11T07:55:19;22.90;54.50
43997;DHT22;34318;45.818;15.964;2022-07-11T07:57:46;22.90;54.20
43997;DHT22;34318;45.818;15.964;2022-07-11T08:00:14;22.80;53.50
43997;DHT22;34318;45.818;15.964;2022-07-11T08:03:08;22.80;53.20
43997;DHT22;34318;45.818;15.964;2022-07-11T08:05:35;22.80;53.20
43997;DHT22;34318;45.818;15.964;2022-07-11T08:08:02;22.80;53.30
43997;DHT22;34318;45.818;15.964;2022-07-11T08:10:30;22.90;52.20
43997;DHT22;34318;45.818;15.964;2022-07-11T08:12:57;22.90;51.20
43997;DHT22;34318;45.818;15.964;2022-07-11T08:15:24;22.90;51.90
43997;DHT22;34318;45.818;15.964;2022-07-11T08:17:51;23.00;52.10
43997;DHT22;34318;45.818;15.964;2022-07-11T08:20:19;23.10;51.90
43997;DHT22;34318;45.818;15.964;2022-07-11T08:22:46;23.10;51.40
43997;DHT22;34318;45.818;15.964;2022-07-11T08:25:14;23.10;50.70
43997;DHT22;34318;45.818;15.964;2022-07-11T08:27:41;23.00;51.20
43997;DHT22;34318;45.818;15.964;2022-07-11T08:30:08;23.10;51.40
43997;DHT22;34318;45.818;15.964;2022-07-11T08:32:39;23.10;51.40
43997;DHT22;34318;45.818;15.964;2022-07-11T08:35:08;23.20;51.40
43997;DHT22;34318;45.818;15.964;2022-07-11T08:37:35;23.10;50.20
43997;DHT22;34318;45.818;15.964;2022-07-11T08:40:03;23.10;51.30
43997;DHT22;34318;45.818;15.964;2022-07-11T08:42:42;23.00;49.70
43997;DHT22;34318;45.818;15.964;2022-07-11T08:45:12;23.00;50.40
43997;DHT22;34318;45.818;15.964;2022-07-11T08:47:40;23.10;51.20
43997;DHT22;34318;45.818;15.964;2022-07-11T08:50:09;23.20;51.60
43997;DHT22;34318;45.818;15.964;2022-07-11T08:52:37;23.20;51.00
43997;DHT22;34318;45.818;15.964;2022-07-11T08:55:04;23.20;50.30
43997;DHT22;34318;45.818;15.964;2022-07-11T08:57:35;23.30;51.30
43997;DHT22;34318;45.818;15.964;2022-07-11T09:00:06;23.30;51.00
43997;DHT22;34318;45.818;15.964;2022-07-11T09:02:35;23.30;50.30
43997;DHT22;34318;45.818;15.964;2022-07-11T09:05:03;23.30;50.50
43997;DHT22;34318;45.818;15.964;2022-07-11T09:07:34;23.30;50.90
43997;DHT22;34318;45.818;15.964;2022-07-11T09:10:01;23.40;51.00
43997;DHT22;34318;45.818;15.964;2022-07-11T09:12:29;23.30;50.80
43997;DHT22;34318;45.818;15.964;2022-07-11T09:14:56;23.40;51.00
43997;DHT22;34318;45.818;15.964;2022-07-11T09:17:27;23.30;50.20
43997;DHT22;34318;45.818;15.964;2022-07-11T09:19:54;23.30;50.80
43997;DHT22;34318;45.818;15.964;2022-07-11T09:22:22;23.30;50.70
43997;DHT22;34318;45.818;15.964;2022-07-11T09:25:08;23.30;50.60
43997;DHT22;34318;45.818;15.964;2022-07-11T09:27:55;23.30;50.30
43997;DHT22;34318;45.818;15.964;2022-07-11T09:30:29;23.30;51.10
43997;DHT22;34318;45.818;15.964;2022-07-11T09:33:16;23.30;51.40
43997;DHT22;34318;45.818;15.964;2022-07-11T09:35:45;23.40;50.70
43997;DHT22;34318;45.818;15.964;2022-07-11T09:38:14;23.40;50.40
43997;DHT22;34318;45.818;15.964;2022-07-11T09:40:45;23.40;50.10
43997;DHT22;34318;45.818;15.964;2022-07-11T09:43:13;23.40;49.70
43997;DHT22;34318;45.818;15.964;2022-07-11T09:45:40;23.40;49.60
43997;DHT22;34318;45.818;15.964;2022-07-11T09:48:12;23.40;49.80
43997;DHT22;34318;45.818;15.964;2022-07-11T09:50:54;23.40;50.00
43997;DHT22;34318;45.818;15.964;2022-07-11T09:53:23;23.40;50.00
43997;DHT22;34318;45.818;15.964;2022-07-11T09:55:49;23.20;48.80
43997;DHT22;34318;45.818;15.964;2022-07-11T09:58:20;23.30;49.00
43997;DHT22;34318;45.818;15.964;2022-07-11T10:00:57;23.30;48.60
43997;DHT22;34318;45.818;15.964;2022-07-11T10:03:25;23.30;48.10
43997;DHT22;34318;45.818;15.964;2022-07-11T10:06:12;23.40;48.60
43997;DHT22;34318;45.818;15.964;2022-07-11T10:08:39;23.40;48.90
43997;DHT22;34318;45.818;15.964;2022-07-11T10:11:06;23.50;48.60
43997;DHT22;34318;45.818;15.964;2022-07-11T10:13:33;23.50;48.60
43997;DHT22;34318;45.818;15.964;2022-07-11T10:16:04;23.60;48.60
43997;DHT22;34318;45.818;15.964;2022-07-11T10:18:50;23.60;48.80
43997;DHT22;34318;45.818;15.964;2022-07-11T10:21:25;23.50;48.60
43997;DHT22;34318;45.818;15.964;2022-07-11T10:23:59;23.50;48.10
43997;DHT22;34318;45.818;15.964;2022-07-11T10:26:39;23.60;48.50
43997;DHT22;34318;45.818;15.964;2022-07-11T10:29:19;23.60;48.70
43997;DHT22;34318;45.818;15.964;2022-07-11T10:32:04;23.60;48.30
43997;DHT22;34318;45.818;15.964;2022-07-11T10:34:43;23.70;48.40
43997;DHT22;34318;45.818;15.964;2022-07-11T10:37:10;23.70;48.20
43997;DHT22;34318;45.818;15.964;2022-07-11T10:39:56;23.60;47.80
43997;DHT22;34318;45.818;15.964;2022-07-11T10:42:38;23.50;47.70
43997;DHT22;34318;45.818;15.964;2022-07-11T10:45:10;23.60;48.30
43997;DHT22;34318;45.818;15.964;2022-07-11T10:47:41;23.60;48.20
43997;DHT22;34318;45.818;15.964;2022-07-11T10:50:34;23.60;48.10
43997;DHT22;34318;45.818;15.964;2022-07-11T10:53:08;23.60;49.10
43997;DHT22;34318;45.818;15.964;2022-07-11T10:55:39;23.60;48.60
43997;DHT22;34318;45.818;15.964;2022-07-11T10:58:13;23.60;47.70
43997;DHT22;34318;45.818;15.964;2022-07-11T11:00:45;23.60;48.00
43997;DHT22;34318;45.818;15.964;2022-07-11T11:03:12;23.60;48.40
43997;DHT22;34318;45.818;15.964;2022-07-11T11:05:43;23.60;48.40
43997;DHT22;34318;45.818;15.964;2022-07-11T11:11:03;23.60;48.50
43997;DHT22;34318;45.818;15.964;2022-07-11T11:13:32;23.60;48.70
43997;DHT22;34318;45.818;15.964;2022-07-11T11:16:17;23.70;48.80
43997;DHT22;34318;45.818;15.964;2022-07-11T11:18:45;23.60;48.40
43997;DHT22;34318;45.818;15.964;2022-07-11T11:23:41;23.70;48.70
43997;DHT22;34318;45.818;15.964;2022-07-11T11:26:20;23.70;48.80
43997;DHT22;34318;45.818;15.964;2022-07-11T11:29:01;23.70;48.40
43997;DHT22;34318;45.818;15.964;2022-07-11T11:31:30;23.70;48.80
43997;DHT22;34318;45.818;15.964;2022-07-11T11:33:58;23.70;48.20
43997;DHT22;34318;45.818;15.964;2022-07-11T11:36:26;23.80;48.50
43997;DHT22;34318;45.818;15.964;2022-07-11T11:38:55;23.70;48.70
43997;DHT22;34318;45.818;15.964;2022-07-11T11:41:24;23.70;49.00
43997;DHT22;34318;45.818;15.964;2022-07-11T11:43:53;23.70;48.90
43997;DHT22;34318;45.818;15.964;2022-07-11T11:46:26;23.70;49.10
43997;DHT22;34318;45.818;15.964;2022-07-11T11:49:04;23.70;48.70
43997;DHT22;34318;45.818;15.964;2022-07-11T11:51:32;23.70;48.90
43997;DHT22;34318;45.818;15.964;2022-07-11T11:54:02;23.70;48.90
43997;DHT22;34318;45.818;15.964;2022-07-11T11:56:34;23.60;48.40
43997;DHT22;34318;45.818;15.964;2022-07-11T11:59:07;23.70;49.20
43997;DHT22;34318;45.818;15.964;2022-07-11T12:01:47;23.60;48.80
43997;DHT22;34318;45.818;15.964;2022-07-11T12:04:15;23.70;48.70
43997;DHT22;34318;45.818;15.964;2022-07-11T12:06:47;23.60;48.70
43997;DHT22;34318;45.818;15.964;2022-07-11T12:09:20;23.60;48.70
43997;DHT22;34318;45.818;15.964;2022-07-11T12:12:07;23.70;48.80
43997;DHT22;34318;45.818;15.964;2022-07-11T12:14:52;23.60;49.00
43997;DHT22;34318;45.818;15.964;2022-07-11T12:17:26;23.70;49.10
43997;DHT22;34318;45.818;15.964;2022-07-11T12:19:56;23.70;48.90
43997;DHT22;34318;45.818;15.964;2022-07-11T12:22:23;23.70;49.20
43997;DHT22;34318;45.818;15.964;2022-07-11T12:24:51;23.70;49.10
43997;DHT22;34318;45.818;15.964;2022-07-11T12:27:23;23.70;48.90
43997;DHT22;34318;45.818;15.964;2022-07-11T12:29:51;23.70;49.10
43997;DHT22;34318;45.818;15.964;2022-07-11T12:32:19;23.70;48.90
43997;DHT22;34318;45.818;15.964;2022-07-11T12:34:48;23.60;49.10
43997;DHT22;34318;45.818;15.964;2022-07-11T12:37:36;23.70;49.40
43997;DHT22;34318;45.818;15.964;2022-07-11T12:40:04;23.70;49.20
43997;DHT22;34318;45.818;15.964;2022-07-11T12:42:43;23.70;49.60
43997;DHT22;34318;45.818;15.964;2022-07-11T12:45:13;23.70;49.70
43997;DHT22;34318;45.818;15.964;2022-07-11T12:47:46;23.70;49.60
43997;DHT22;34318;45.818;15.964;2022-07-11T12:50:26;23.80;49.00
43997;DHT22;34318;45.818;15.964;2022-07-11T12:52:55;23.70;49.40
43997;DHT22;34318;45.818;15.964;2022-07-11T12:55:27;23.80;49.20
43997;DHT22;34318;45.818;15.964;2022-07-11T13:00:27;23.80;48.60
43997;DHT22;34318;45.818;15.964;2022-07-11T13:02:54;23.80;48.10
43997;DHT22;34318;45.818;15.964;2022-07-11T13:05:21;23.80;48.60
43997;DHT22;34318;45.818;15.964;2022-07-11T13:07:48;23.70;48.80
43997;DHT22;34318;45.818;15.964;2022-07-11T13:10:33;23.80;48.80
43997;DHT22;34318;45.818;15.964;2022-07-11T13:13:32;23.80;48.50
43997;DHT22;34318;45.818;15.964;2022-07-11T13:15:59;23.80;49.40
43997;DHT22;34318;45.818;15.964;2022-07-11T13:18:26;23.80;49.10
43997;DHT22;34318;45.818;15.964;2022-07-11T13:20:53;23.70;49.30
43997;DHT22;34318;45.818;15.964;2022-07-11T13:23:22;23.70;49.40
43997;DHT22;34318;45.818;15.964;2022-07-11T13:25:49;23.80;48.90
43997;DHT22;34318;45.818;15.964;2022-07-11T13:28:16;23.80;49.40
43997;DHT22;34318;45.818;15.964;2022-07-11T13:30:43;23.80;49.30
43997;DHT22;34318;45.818;15.964;2022-07-11T13:33:30;23.80;48.90
43997;DHT22;34318;45.818;15.964;2022-07-11T13:35:57;23.90;49.00
43997;DHT22;34318;45.818;15.964;2022-07-11T13:38:24;23.90;49.10
43997;DHT22;34318;45.818;15.964;2022-07-11T13:40:51;23.90;48.90
43997;DHT22;34318;45.818;15.964;2022-07-11T13:43:18;24.00;49.20
43997;DHT22;34318;45.818;15.964;2022-07-11T13:45:45;23.90;48.60
43997;DHT22;34318;45.818;15.964;2022-07-11T13:48:15;23.80;48.90
43997;DHT22;34318;45.818;15.964;2022-07-11T13:50:41;23.90;49.40
43997;DHT22;34318;45.818;15.964;2022-07-11T13:53:10;23.90;49.30
43997;DHT22;34318;45.818;15.964;2022-07-11T13:55:37;23.90;49.90
43997;DHT22;34318;45.818;15.964;2022-07-11T13:58:04;23.90;49.90
43997;DHT22;34318;45.818;15.964;2022-07-11T14:00:30;24.00;49.60
43997;DHT22;34318;45.818;15.964;2022-07-11T14:02:59;23.90;50.10
43997;DHT22;34318;45.818;15.964;2022-07-11T14:05:26;23.90;50.30
43997;DHT22;34318;45.818;15.964;2022-07-11T14:07:53;23.90;50.60
43997;DHT22;34318;45.818;15.964;2022-07-11T14:10:20;23.90;50.50
43997;DHT22;34318;45.818;15.964;2022-07-11T14:12:54;23.90;50.10
43997;DHT22;34318;45.818;15.964;2022-07-11T14:15:21;23.90;49.60
43997;DHT22;34318;45.818;15.964;2022-07-11T14:17:48;23.90;49.80
43997;DHT22;34318;45.818;15.964;2022-07-11T14:20:15;23.90;49.30
43997;DHT22;34318;45.818;15.964;2022-07-11T14:22:42;23.90;49.00
43997;DHT22;34318;45.818;15.964;2022-07-11T14:25:09;23.90;49.60
43997;DHT22;34318;45.818;15.964;2022-07-11T14:27:37;23.90;49.80
43997;DHT22;34318;45.818;15.964;2022-07-11T14:30:06;23.90;49.90
43997;DHT22;34318;45.818;15.964;2022-07-11T14:32:34;24.00;49.90
43997;DHT22;34318;45.818;15.964;2022-07-11T14:35:01;24.00;49.30
43997;DHT22;34318;45.818;15.964;2022-07-11T14:37:28;24.00;49.50
43997;DHT22;34318;45.818;15.964;2022-07-11T14:39:57;24.00;49.60
43997;DHT22;34318;45.818;15.964;2022-07-11T14:42:24;24.00;49.70
43997;DHT22;34318;45.818;15.964;2022-07-11T14:45:09;24.00;50.70
43997;DHT22;34318;45.818;15.964;2022-07-11T14:47:37;24.00;50.40
43997;DHT22;34318;45.818;15.964;2022-07-11T14:50:04;24.00;50.30
43997;DHT22;34318;45.818;15.964;2022-07-11T14:52:32;24.00;50.40
43997;DHT22;34318;45.818;15.964;2022-07-11T14:54:59;24.00;50.10
43997;DHT22;34318;45.818;15.964;2022-07-11T14:57:26;24.00;50.40
43997;DHT22;34318;45.818;15.964;2022-07-11T14:59:53;24.00;51.00
43997;DHT22;34318;45.818;15.964;2022-07-11T15:02:20;24.00;50.70
43997;DHT22;34318;45.818;15.964;2022-07-11T15:05:07;24.00;50.90
43997;DHT22;34318;45.818;15.964;2022-07-11T15:07:34;24.00;51.30
43997;DHT22;34318;45.818;15.964;2022-07-11T15:10:20;24.00;51.30
43997;DHT22;34318;45.818;15.964;2022-07-11T15:13:14;24.00;51.80
43997;DHT22;34318;45.818;15.964;2022-07-11T15:15:41;24.00;50.80
43997;DHT22;34318;45.818;15.964;2022-07-11T15:18:08;24.00;50.30
43997;DHT22;34318;45.818;15.964;2022-07-11T15:20:35;24.00;50.80
43997;DHT22;34318;45.818;15.964;2022-07-11T15:23:01;24.10;51.10
43997;DHT22;34318;45.818;15.964;2022-07-11T15:25:28;24.00;50.60
43997;DHT22;34318;45.818;15.964;2022-07-11T15:27:55;24.10;50.50
43997;DHT22;34318;45.818;15.964;2022-07-11T15:30:23;24.00;50.40
43997;DHT22;34318;45.818;15.964;2022-07-11T15:32:50;24.10;51.10
43997;DHT22;34318;45.818;15.964;2022-07-11T15:35:17;24.00;51.50
43997;DHT22;34318;45.818;15.964;2022-07-11T15:37:44;24.00;51.50
43997;DHT22;34318;45.818;15.964;2022-07-11T15:40:11;24.00;51.50
43997;DHT22;34318;45.818;15.964;2022-07-11T15:42:39;24.10;50.90